| time (UTC) | temp C | wind direction | speed KPH | gust KPH | rain 1hr cm | rain 24hr cm | rain mn cm | humidity % | barometer mb |
| 20260510063026 | 10 | 200 | 0.0 | 0.0 | 0.00 | 1.09 | 0.03 | 90 | 1012.4 |
| 20260510061528 | 10 | 281 | 0.0 | 0.0 | 0.00 | 1.09 | 0.03 | 91 | 1012.4 |
| 20260510060036 | 10 | 281 | 0.0 | 0.0 | 0.00 | 1.09 | 0.03 | 90 | 1012.4 |
| 20260510054510 | 10 | 281 | 1.6 | 4.8 | 0.03 | 1.09 | 0.03 | 90 | 1012.5 |
| 20260510053007 | 9 | 280 | 1.6 | 4.8 | 0.03 | 1.09 | 0.03 | 90 | 1012.2 |
| 20260510051504 | 9 | 329 | 0.0 | 4.8 | 0.03 | 1.09 | 0.03 | 90 | 1012.2 |
| 20260510050100 | 8 | 290 | 0.0 | 3.2 | 0.03 | 1.09 | 0.03 | 90 | 1012.2 |
| 20260510044559 | 8 | 67 | 0.0 | 3.2 | 0.00 | 1.09 | 0.00 | 89 | 1012.2 |
| 20260510043143 | 8 | 65 | 0.0 | 3.2 | 0.00 | 1.09 | 0.00 | 89 | 1012.3 |
| 20260510041557 | 8 | 189 | 0.0 | 3.2 | 0.00 | 1.09 | 0.00 | 89 | 1012.4 |
| 20260510040056 | 8 | 272 | 1.6 | 8.0 | 0.00 | 1.09 | 0.00 | 89 | 1012.3 |
| 20260510034556 | 9 | 234 | 1.6 | 6.4 | 0.00 | 1.09 | 0.00 | 89 | 1012.2 |
| 20260510033056 | 8 | 65 | 0.0 | 4.8 | 0.00 | 1.09 | 0.00 | 88 | 1012.2 |
| 20260510031621 | 9 | 255 | 1.6 | 4.8 | 0.00 | 1.09 | 0.00 | 88 | 1012.3 |
| 20260510030052 | 8 | 84 | 0.0 | 4.8 | 0.00 | 1.09 | 0.00 | 88 | 1012.4 |
| 20260510024546 | 9 | 30 | 0.0 | 4.8 | 0.00 | 1.09 | 0.00 | 87 | 1012.5 |
| 20260510023051 | 9 | 134 | 0.0 | 3.2 | 0.00 | 1.09 | 0.00 | 87 | 1012.7 |
| 20260510021544 | 10 | 269 | 1.6 | 4.8 | 0.00 | 1.09 | 0.00 | 87 | 1012.8 |
| 20260510020038 | 10 | 252 | 1.6 | 6.4 | 0.00 | 1.09 | 0.00 | 87 | 1012.9 |
| 20260510014536 | 10 | 266 | 0.0 | 4.8 | 0.00 | 1.09 | 0.00 | 87 | 1012.7 |
| 20260510013037 | 10 | 275 | 3.2 | 6.4 | 0.00 | 1.09 | 0.00 | 86 | 1012.7 |
| 20260510011538 | 10 | 68 | 0.0 | 3.2 | 0.00 | 1.09 | 0.00 | 86 | 1012.7 |
| 20260510010037 | 10 | 68 | 1.6 | 3.2 | 0.00 | 1.09 | 0.00 | 86 | 1012.8 |
| 20260510004533 | 10 | 68 | 0.0 | 0.0 | 0.00 | 1.09 | 0.00 | 86 | 1012.9 |
| 20260510003030 | 10 | 68 | 0.0 | 1.6 | 0.00 | 1.09 | 0.00 | 86 | 1013.2 |
| 20260510001529 | 10 | 68 | 1.6 | 3.2 | 0.00 | 1.09 | 0.00 | 86 | 1013.0 |
| 20260510000027 | 11 | 68 | 1.6 | 3.2 | 0.00 | 1.09 | 0.00 | 85 | 1013.3 |
| 20260509234525 | 11 | 68 | 0.0 | 3.2 | 0.00 | 1.09 | 0.00 | 85 | 1013.5 |
| 20260509233023 | 11 | 68 | 0.0 | 1.6 | 0.00 | 1.09 | 0.00 | 85 | 1013.6 |
| 20260509231522 | 11 | 68 | 0.0 | 0.0 | 0.00 | 1.09 | 0.00 | 85 | 1013.7 |
| 20260509230021 | 11 | 68 | 0.0 | 3.2 | 0.00 | 1.09 | 0.00 | 85 | 1013.9 |
| 20260509224520 | 11 | 68 | 1.6 | 4.8 | 0.00 | 1.09 | 0.00 | 85 | 1013.8 |
| 20260509223025 | 11 | 68 | 0.0 | 0.0 | 0.00 | 1.09 | 0.00 | 86 | 1013.7 |
| 20260509221525 | 11 | 68 | 0.0 | 3.2 | 0.00 | 1.09 | 0.00 | 86 | 1013.7 |
| 20260509220017 | 11 | 68 | 1.6 | 3.2 | 0.00 | 1.09 | 0.00 | 87 | 1013.6 |
| 20260509214514 | 11 | 68 | 0.0 | 1.6 | 0.00 | 1.09 | 1.09 | 87 | 1013.6 |
| 20260509213015 | 11 | 68 | 1.6 | 6.4 | 0.00 | 1.09 | 1.09 | 87 | 1013.6 |
| 20260509211527 | 11 | 68 | 0.0 | 3.2 | 0.00 | 1.09 | 1.09 | 88 | 1013.5 |
| 20260509210113 | 11 | 68 | 3.2 | 8.0 | 0.00 | 1.09 | 1.09 | 88 | 1013.5 |
| 20260509204512 | 11 | 68 | 0.0 | 8.0 | 0.00 | 1.09 | 1.09 | 88 | 1013.4 |
| 20260509203029 | 11 | 68 | 1.6 | 8.0 | 0.00 | 1.09 | 1.09 | 88 | 1012.9 |
| 20260509201512 | 11 | 340 | 3.2 | 8.0 | 0.00 | 1.09 | 1.09 | 88 | 1012.6 |
| 20260509200011 | 11 | 332 | 3.2 | 6.4 | 0.00 | 1.09 | 1.09 | 88 | 1012.4 |
| 20260509194510 | 11 | 321 | 4.8 | 12.9 | 0.03 | 1.09 | 1.09 | 88 | 1012.2 |
| 20260509193010 | 11 | 301 | 0.0 | 4.8 | 0.03 | 1.09 | 1.09 | 89 | 1012.1 |
| 20260509191512 | 11 | 346 | 8.0 | 20.9 | 0.05 | 1.09 | 1.09 | 89 | 1011.9 |
| 20260509190008 | 11 | 12 | 12.9 | 20.9 | 0.05 | 1.09 | 1.09 | 89 | 1011.5 |
| 20260509184509 | 11 | 17 | 16.1 | 22.5 | 0.05 | 1.07 | 1.07 | 90 | 1011.4 |
| 20260509183013 | 11 | 24 | 16.1 | 24.1 | 0.08 | 1.07 | 1.07 | 90 | 1011.2 |
| 20260509181506 | 11 | 25 | 14.5 | 20.9 | 0.13 | 1.04 | 1.04 | 90 | 1011.1 |
| 20260509180005 | 11 | 11 | 12.9 | 19.3 | 0.20 | 1.04 | 1.04 | 89 | 1011.0 |
| 20260509174506 | 11 | 18 | 12.9 | 17.7 | 0.30 | 1.02 | 1.02 | 89 | 1010.9 |
| 20260509173002 | 11 | 22 | 4.8 | 8.0 | 0.38 | 0.99 | 0.99 | 88 | 1011.3 |
| 20260509171501 | 11 | 180 | 0.0 | 4.8 | 0.51 | 0.91 | 0.91 | 88 | 1011.9 |
| 20260509164701 | 11 | 194 | 8.0 | 19.3 | 0.69 | 0.71 | 0.71 | 87 | 1012.5 |
| 20260509163107 | 12 | 194 | 8.0 | 19.3 | 0.61 | 0.61 | 0.61 | 86 | 1012.7 |
| 20260509163001 | 12 | 186 | 8.0 | 19.3 | 0.61 | 0.61 | 0.61 | 86 | 1012.7 |
| 20260509161557 | 12 | 196 | 8.0 | 16.1 | 0.43 | 0.43 | 0.43 | 85 | 1012.9 |
| 20260509160101 | 12 | 216 | 11.3 | 22.5 | 0.23 | 0.23 | 0.23 | 84 | 1012.9 |
| 20260509154555 | 13 | 204 | 11.3 | 17.7 | 0.03 | 0.03 | 0.03 | 82 | 1012.9 |
| 20260509153055 | 13 | 84 | 0.0 | 12.9 | 0.00 | 0.00 | 0.00 | 79 | 1012.0 |
| 20260509151554 | 13 | 57 | 9.7 | 24.1 | 0.00 | 0.00 | 0.00 | 79 | 1010.9 |
| 20260509150052 | 13 | 76 | 12.9 | 24.1 | 0.00 | 0.00 | 0.00 | 78 | 1010.8 |
| 20260509144551 | 13 | 64 | 17.7 | 24.1 | 0.00 | 0.00 | 0.00 | 77 | 1011.0 |
| 20260509143052 | 13 | 67 | 11.3 | 17.7 | 0.00 | 0.00 | 0.00 | 76 | 1011.6 |
| 20260509141546 | 14 | 102 | 9.7 | 16.1 | 0.00 | 0.00 | 0.00 | 76 | 1012.1 |
| 20260509140048 | 14 | 82 | 9.7 | 16.1 | 0.00 | 0.00 | 0.00 | 75 | 1012.3 |
| 20260509134551 | 15 | 77 | 1.6 | 6.4 | 0.00 | 0.00 | 0.00 | 74 | 1012.4 |
| 20260509133054 | 15 | 14 | 1.6 | 6.4 | 0.00 | 0.00 | 0.00 | 74 | 1012.6 |
| 20260509131542 | 15 | 211 | 4.8 | 14.5 | 0.00 | 0.00 | 0.00 | 73 | 1012.9 |
| 20260509130041 | 15 | 121 | 4.8 | 16.1 | 0.00 | 0.00 | 0.00 | 72 | 1012.8 |
| 20260509124539 | 15 | 109 | 4.8 | 16.1 | 0.00 | 0.00 | 0.00 | 73 | 1012.4 |
| 20260509123038 | 15 | 140 | 1.6 | 11.3 | 0.00 | 0.00 | 0.00 | 73 | 1012.6 |
| 20260509121539 | 15 | 186 | 3.2 | 12.9 | 0.00 | 0.00 | 0.00 | 73 | 1013.0 |
| 20260509120036 | 15 | 195 | 4.8 | 16.1 | 0.00 | 0.00 | 0.00 | 72 | 1013.3 |
| 20260509114535 | 15 | 184 | 4.8 | 11.3 | 0.00 | 0.00 | 0.00 | 73 | 1013.6 |
| 20260509113033 | 15 | 180 | 8.0 | 16.1 | 0.00 | 0.00 | 0.00 | 73 | 1013.7 |
| 20260509111532 | 15 | 198 | 6.4 | 14.5 | 0.00 | 0.00 | 0.00 | 72 | 1013.6 |
| 20260509110030 | 16 | 126 | 4.8 | 12.9 | 0.00 | 0.00 | 0.00 | 67 | 1013.6 |
| 20260509104534 | 16 | 117 | 3.2 | 12.9 | 0.00 | 0.00 | 0.00 | 68 | 1013.8 |
| 20260509103029 | 16 | 127 | 3.2 | 11.3 | 0.00 | 0.00 | 0.00 | 68 | 1013.9 |
| 20260509101528 | 15 | 107 | 9.7 | 16.1 | 0.00 | 0.00 | 0.00 | 68 | 1013.9 |
| 20260509100026 | 15 | 130 | 8.0 | 17.7 | 0.00 | 0.00 | 0.00 | 68 | 1013.8 |
| 20260509094525 | 15 | 77 | 11.3 | 20.9 | 0.00 | 0.00 | 0.00 | 67 | 1013.7 |
| 20260509093022 | 15 | 78 | 11.3 | 19.3 | 0.00 | 0.00 | 0.00 | 67 | 1013.5 |
| 20260509091527 | 14 | 51 | 8.0 | 16.1 | 0.00 | 0.00 | 0.00 | 71 | 1013.4 |
| 20260509090015 | 13 | 64 | 4.8 | 12.9 | 0.00 | 0.00 | 0.00 | 72 | 1013.7 |
| 20260509084520 | 13 | 39 | 8.0 | 16.1 | 0.00 | 0.00 | 0.00 | 72 | 1013.6 |
| 20260509083013 | 13 | 111 | 9.7 | 16.1 | 0.00 | 0.00 | 0.00 | 73 | 1013.4 |
| 20260509081510 | 13 | 50 | 4.8 | 16.1 | 0.00 | 0.00 | 0.00 | 75 | 1013.6 |
| 20260509080004 | 13 | 82 | 4.8 | 16.1 | 0.00 | 0.00 | 0.00 | 77 | 1013.5 |
| 20260509074502 | 12 | 61 | 6.4 | 11.3 | 0.00 | 0.00 | 0.00 | 79 | 1013.5 |
| 20260509073206 | 12 | 61 | 3.2 | 8.0 | 0.00 | 0.00 | 0.00 | 80 | 1013.7 |
| 20260509071557 | 12 | 90 | 4.8 | 9.7 | 0.00 | 0.00 | 0.00 | 80 | 1013.7 |
| 20260509070056 | 11 | 76 | 8.0 | 12.9 | 0.00 | 0.00 | 0.00 | 79 | 1013.8 |
| 20260509064553 | 11 | 88 | 6.4 | 14.5 | 0.00 | 0.00 | 0.00 | 79 | 1013.9 |